Hilo, HI (96720)

5:56 PM HST on August 27, 2016 (GMT -1000)
Sunrise Estates | | Change Station

Elev 413 ft 19.70 °N, 155.10 °W | Updated 13 seconds ago

Clear
Clear
77.2 °F
Feels Like 79 °F
N
0.0
Wind Variable Wind from SSW
Gusts 0.0 mph

Today
High -- | Low -- °F
--% Chance of Precip.
Yesterday
High -- | Low -- °F
Precip. -- in
Pressure 29.91 in
Visibility 10.0 miles
Clouds Clear
Heat Index 79 °F
Dew Point 69 °F
Humidity 77%
Rainfall 0.02 in
Snow Depth Not available.
6:04 AM 6:39 PM
Waning Crescent, 19% visible
METAR PHTO 280353Z 01006KT 10SM CLR 27/21 A2992 RMK AO2 SLP129 T02720206
Pressure 29.91 in
Visibility 10.0 miles
Clouds Clear
Heat Index 79 °F
Dew Point 69 °F
Humidity 77%
Rainfall 0.02 in
Snow Depth Not available.
6:04 AM 6:39 PM
Waning Crescent, 19% visible
METAR PHTO 280353Z 01006KT 10SM CLR 27/21 A2992 RMK AO2 SLP129 T02720206

10-Day Weather Forecast

Almanac

Astronomy

Aug. 27, 2016 Rise Set
Actual Time
Civil Twilight
Nautical Twilight
Astronomical Twilight
Moon
Length of Visible Light
Length of Day
Tomorrow will be .
, % of the Moon is Illuminated

Today's Extremes

State Highs State Lows

Community

WunderPhotos

Upload Photos

1,935,519 photos uploaded!

WunderBlog® & News

Nearby

Air Quality

  Air Quality AQ Index Pollutant
Not available.

Snow Depth

Station Depth Elevation

Earthquake Activity

City Distance Mag. Time & Date
Minimum magnitude displayed is 2.5.

Coastal Water Temperatures

Place Temperature

Stations

Nearby Weather Stations

Station Location Temp. Windchill Dew Point Humidity Wind Precip. Elev Updated Type
                   

Watches & Warnings

There are currently no watches in effect.